Due to severe server failure at the provider, not all demo sites are operational. Will take some days to rebuilt everything.

Demonstration site - Click on the  for more information

This is an optional block. Switch it on/off in your settings-file: $SITE['bannerTop'] = false; or $SITE['bannerBottom'] = false;

You can display ads, any other important text or photo’s using text / html or PHP code.

You can place one or more at the top and or bottom and it can all be different for content / size .



Visit our other weather sites:

Template documentation
and downloads

And another site



Nearby METAR Reports

   
EBAW - Antwerp
Updated: 25-02-2018 22:20
Clear  
Clear  
   Wind: ENE 25.9 km/h
Wind: ENE 25.9 km/h
Temperature: -2°C
Wind Chill: -8°C
Dew Point: -11°C
Humidity: 51%
Barometer: 1029 hPa
Visibility: More than 10 km
Cloud details: Clear ft
EBAW 252120Z 06014KT CAVOK M02/M11 Q1029 NOSIG
EBLG - Liège
Updated: 25-02-2018 22:20
Clear  
Clear  
   Wind: NE 25.9 km/h
Wind: NE 25.9 km/h
Temperature: -3°C
Wind Chill: -10°C
Dew Point: -13°C
Humidity: 46%
Barometer: 1026 hPa
Visibility: More than 10 km
Cloud details: Clear ft
EBLG 252120Z 05014KT CAVOK M03/M13 Q1026 NOSIG
EBCV - Mons/Bergen
Updated: 25-02-2018 22:25
Clear  
Clear  
   Wind: NE 22.2 km/h
Wind: NE 22.2 km/h
Temperature: -3°C
Wind Chill: -9°C
Dew Point: -11°C
Humidity: 54%
Barometer: 1027 hPa
Clouds: Clear
Visibility: More than 10 km
Cloud details: Clear ft
EBCV 252125Z AUTO 05012KT 9999 NCD M03/M11 Q1027 BLU
EHBK - Maastricht
Updated: 25-02-2018 22:25
Partly Cloudy  
Partly Cloudy  
   Wind: NE 27.8 km/h
Wind: NE 27.8 km/h
Temperature: -3°C
Wind Chill: -10°C
Dew Point: -10°C
Humidity: 59%
Barometer: 1027 hPa
Clouds: Partly Cloudy
Visibility: More than 10 km
Cloud details: Partly Cloudy ft
EHBK 252125Z AUTO 05015KT 9999 NSC M03/M10 Q1027 NOSIG
ELLX - Luxemburg
Updated: 25-02-2018 22:20
Clear  
Clear  
   Wind: ENE 22.2 km/h
Wind: ENE 22.2 km/h
Temperature: -4°C
Wind Chill: -11°C
Dew Point: -16°C
Humidity: 39%
Barometer: 1022 hPa
Visibility: More than 10 km
Cloud details: Clear ft
ELLX 252120Z 07012KT 040V100 CAVOK M04/M16 Q1022 NOSIG
EBOS - Oostende
Updated: 25-02-2018 22:20
Clear  
Clear  
   Wind: ENE 29.6 km/h
Wind: ENE 29.6 km/h
Temperature: -2°C
Wind Chill: -9°C
Dew Point: -11°C
Humidity: 51%
Barometer: 1029 hPa
Visibility: More than 10 km
Cloud details: Clear ft
EBOS 252120Z 06016KT CAVOK M02/M11 Q1029 NOSIG

Script developed by  Saratoga-weather.org Adapted for the template by  Weerstation Leuven

This is an optional block. Switch it on/off in your settings-file: $SITE['bannerTop'] = false; or $SITE['bannerBottom'] = false;

You can display ads, any other important text or photo’s using text / html or PHP code.

You can place one or more at the top and or bottom and it can all be different for content / size .